Metar Aviation Weather Data EDDG

15°C Temp
11°C Dewpoint
% Humidity
Temperature
3 KM/H
2 MPH
2 KTS
270°
Due West

Wind Speed
Clear
Conditions
Pressure 1016.92 (hPa) - 30.03 (in)
Visibility 6.2 (mi) - 10 (km)

Current Conditions
EDDG
Metar :EDDG 030120Z 27002KT CAVOK 15/11 Q1017 NOSIG
Sun 3rd July 03:20 am

  Metar Aviation API Data Provided by https://www.checkwx.com/ PHP scripts by weather34.com ©2022